Saint Louis, Missouri
Traffic Map
Current Weather Conditions
Saint Louis, Missouri
Clear
Clear
34°
Feels Like: 39°
Wind Chill: 34° Ceiling: Unl
Heat Index: 39° Visibility: 10mi
Dew Point: 22° Wind: 3mph
Humidity: 49% Direction: ° ()
Pressure: 30.02in Gusts: 0mph
Raw Report DataKCPS 261853Z VRB03KT 10SM CLR 34/22 A3002 RMK AO2 SLP160 T03440222
Traffic Incident Summary
Active as of:
Severity:
Category:
InformationThere was an issue retrieving the traffic information for this location. Please try a different location or try again shortly.
Advertisements
Track Severe Weather on mobile